sensor_id;sensor_type;location;lat;lon;timestamp;pressure;altitude;pressure_sealevel;temperature;humidity
10202;BME280;5143;42.584;23.164;2023-04-15T00:01:50;91790.53;;;6.43;100.00
10202;BME280;5143;42.584;23.164;2023-04-15T00:04:19;91794.88;;;6.56;100.00
10202;BME280;5143;42.584;23.164;2023-04-15T00:06:49;91790.00;;;6.60;100.00
10202;BME280;5143;42.584;23.164;2023-04-15T00:09:17;91787.06;;;6.63;100.00
10202;BME280;5143;42.584;23.164;2023-04-15T00:11:44;91793.50;;;6.66;100.00
10202;BME280;5143;42.584;23.164;2023-04-15T00:14:12;91787.69;;;6.73;100.00
10202;BME280;5143;42.584;23.164;2023-04-15T00:16:40;91792.69;;;6.80;100.00
10202;BME280;5143;42.584;23.164;2023-04-15T00:19:06;91785.13;;;6.64;100.00
10202;BME280;5143;42.584;23.164;2023-04-15T00:21:35;91804.28;;;6.80;100.00
10202;BME280;5143;42.584;23.164;2023-04-15T00:24:01;91810.91;;;6.53;100.00
10202;BME280;5143;42.584;23.164;2023-04-15T00:26:28;91814.56;;;6.50;100.00
10202;BME280;5143;42.584;23.164;2023-04-15T00:28:55;91814.81;;;6.52;100.00
10202;BME280;5143;42.584;23.164;2023-04-15T00:31:22;91805.88;;;6.46;100.00
10202;BME280;5143;42.584;23.164;2023-04-15T00:33:49;91811.84;;;6.50;100.00
10202;BME280;5143;42.584;23.164;2023-04-15T00:36:17;91804.72;;;6.53;100.00
10202;BME280;5143;42.584;23.164;2023-04-15T00:38:46;91809.84;;;6.51;100.00
10202;BME280;5143;42.584;23.164;2023-04-15T00:41:12;91798.81;;;6.54;100.00
10202;BME280;5143;42.584;23.164;2023-04-15T00:43:40;91802.94;;;6.50;100.00
10202;BME280;5143;42.584;23.164;2023-04-15T00:46:08;91788.84;;;6.46;100.00
10202;BME280;5143;42.584;23.164;2023-04-15T00:48:35;91801.78;;;6.57;100.00
10202;BME280;5143;42.584;23.164;2023-04-15T00:51:03;91803.09;;;6.61;100.00
10202;BME280;5143;42.584;23.164;2023-04-15T00:53:30;91806.81;;;6.64;100.00
10202;BME280;5143;42.584;23.164;2023-04-15T00:55:58;91794.06;;;6.49;100.00
10202;BME280;5143;42.584;23.164;2023-04-15T00:58:25;91798.81;;;6.54;100.00
10202;BME280;5143;42.584;23.164;2023-04-15T01:00:53;91791.91;;;6.53;100.00
10202;BME280;5143;42.584;23.164;2023-04-15T01:03:25;91797.03;;;6.51;100.00
10202;BME280;5143;42.584;23.164;2023-04-15T01:05:52;91804.38;;;6.45;100.00
10202;BME280;5143;42.584;23.164;2023-04-15T01:08:23;91804.22;;;6.54;100.00
10202;BME280;5143;42.584;23.164;2023-04-15T01:10:53;91795.34;;;6.54;100.00
10202;BME280;5143;42.584;23.164;2023-04-15T01:13:22;91798.19;;;6.65;100.00
10202;BME280;5143;42.584;23.164;2023-04-15T01:15:49;91799.13;;;6.82;100.00
10202;BME280;5143;42.584;23.164;2023-04-15T01:18:17;91787.59;;;6.87;100.00
10202;BME280;5143;42.584;23.164;2023-04-15T01:20:45;91802.06;;;7.04;100.00
10202;BME280;5143;42.584;23.164;2023-04-15T01:23:12;91796.44;;;7.08;100.00
10202;BME280;5143;42.584;23.164;2023-04-15T01:25:41;91798.97;;;7.17;100.00
10202;BME280;5143;42.584;23.164;2023-04-15T01:28:09;91786.66;;;7.16;100.00
10202;BME280;5143;42.584;23.164;2023-04-15T01:30:36;91791.88;;;7.20;100.00
10202;BME280;5143;42.584;23.164;2023-04-15T01:33:03;91800.22;;;7.16;100.00
10202;BME280;5143;42.584;23.164;2023-04-15T01:35:31;91801.22;;;7.19;100.00
10202;BME280;5143;42.584;23.164;2023-04-15T01:38:02;91797.59;;;7.27;100.00
10202;BME280;5143;42.584;23.164;2023-04-15T01:40:30;91796.59;;;7.25;100.00
10202;BME280;5143;42.584;23.164;2023-04-15T01:42:59;91796.66;;;7.30;100.00
10202;BME280;5143;42.584;23.164;2023-04-15T01:45:26;91789.72;;;7.29;100.00
10202;BME280;5143;42.584;23.164;2023-04-15T01:47:53;91807.06;;;7.37;100.00
10202;BME280;5143;42.584;23.164;2023-04-15T01:50:20;91809.06;;;7.42;100.00
10202;BME280;5143;42.584;23.164;2023-04-15T01:52:47;91808.31;;;7.42;100.00
10202;BME280;5143;42.584;23.164;2023-04-15T01:55:14;91812.28;;;7.41;100.00
10202;BME280;5143;42.584;23.164;2023-04-15T01:57:41;91818.97;;;7.45;100.00
10202;BME280;5143;42.584;23.164;2023-04-15T02:00:10;91811.09;;;7.47;100.00
10202;BME280;5143;42.584;23.164;2023-04-15T02:02:37;91805.00;;;7.52;100.00
10202;BME280;5143;42.584;23.164;2023-04-15T02:05:04;91806.47;;;7.53;100.00
10202;BME280;5143;42.584;23.164;2023-04-15T02:07:31;91804.84;;;7.36;100.00
10202;BME280;5143;42.584;23.164;2023-04-15T02:09:57;91805.34;;;7.40;100.00
10202;BME280;5143;42.584;23.164;2023-04-15T02:12:25;91807.06;;;7.37;100.00
10202;BME280;5143;42.584;23.164;2023-04-15T02:14:52;91807.97;;;7.29;100.00
10202;BME280;5143;42.584;23.164;2023-04-15T02:17:20;91802.06;;;7.30;100.00
10202;BME280;5143;42.584;23.164;2023-04-15T02:19:47;91809.03;;;7.37;100.00
10202;BME280;5143;42.584;23.164;2023-04-15T02:22:14;91798.91;;;7.37;100.00
10202;BME280;5143;42.584;23.164;2023-04-15T02:24:43;91792.69;;;7.31;100.00
10202;BME280;5143;42.584;23.164;2023-04-15T02:27:10;91800.69;;;7.40;100.00
10202;BME280;5143;42.584;23.164;2023-04-15T02:29:40;91814.31;;;7.46;100.00
10202;BME280;5143;42.584;23.164;2023-04-15T02:32:08;91810.56;;;7.43;100.00
10202;BME280;5143;42.584;23.164;2023-04-15T02:34:37;91818.22;;;7.45;100.00
10202;BME280;5143;42.584;23.164;2023-04-15T02:37:05;91810.03;;;7.39;100.00
10202;BME280;5143;42.584;23.164;2023-04-15T02:39:32;91807.75;;;7.32;100.00
10202;BME280;5143;42.584;23.164;2023-04-15T02:41:59;91816.13;;;7.29;100.00
10202;BME280;5143;42.584;23.164;2023-04-15T02:44:27;91807.16;;;7.23;100.00
10202;BME280;5143;42.584;23.164;2023-04-15T02:46:53;91810.13;;;7.19;100.00
10202;BME280;5143;42.584;23.164;2023-04-15T02:49:20;91807.06;;;7.11;100.00
10202;BME280;5143;42.584;23.164;2023-04-15T02:51:49;91796.44;;;7.08;100.00
10202;BME280;5143;42.584;23.164;2023-04-15T02:54:16;91792.72;;;7.05;100.00
10202;BME280;5143;42.584;23.164;2023-04-15T02:56:43;91797.78;;;6.98;100.00
10202;BME280;5143;42.584;23.164;2023-04-15T02:59:11;91793.28;;;6.89;100.00
10202;BME280;5143;42.584;23.164;2023-04-15T03:01:38;91805.56;;;6.85;100.00
10202;BME280;5143;42.584;23.164;2023-04-15T03:04:05;91796.50;;;6.68;100.00
10202;BME280;5143;42.584;23.164;2023-04-15T03:06:33;91805.19;;;6.51;100.00
10202;BME280;5143;42.584;23.164;2023-04-15T03:09:02;91802.63;;;6.42;100.00
10202;BME280;5143;42.584;23.164;2023-04-15T03:11:28;91809.66;;;6.34;100.00
10202;BME280;5143;42.584;23.164;2023-04-15T03:13:56;91817.25;;;6.30;100.00
10202;BME280;5143;42.584;23.164;2023-04-15T03:16:22;91819.81;;;6.19;100.00
10202;BME280;5143;42.584;23.164;2023-04-15T03:18:50;91823.38;;;6.11;100.00
10202;BME280;5143;42.584;23.164;2023-04-15T03:21:17;91827.44;;;6.01;100.00
10202;BME280;5143;42.584;23.164;2023-04-15T03:23:44;91830.91;;;5.86;100.00
10202;BME280;5143;42.584;23.164;2023-04-15T03:26:25;91836.72;;;5.79;100.00
10202;BME280;5143;42.584;23.164;2023-04-15T03:28:52;91841.56;;;5.75;100.00
10202;BME280;5143;42.584;23.164;2023-04-15T03:31:19;91845.19;;;5.72;100.00
10202;BME280;5143;42.584;23.164;2023-04-15T03:33:46;91846.81;;;5.64;100.00
10202;BME280;5143;42.584;23.164;2023-04-15T03:36:14;91845.50;;;5.60;100.00
10202;BME280;5143;42.584;23.164;2023-04-15T03:38:41;91853.53;;;5.54;100.00
10202;BME280;5143;42.584;23.164;2023-04-15T03:41:08;91859.78;;;5.46;100.00
10202;BME280;5143;42.584;23.164;2023-04-15T03:43:36;91856.63;;;5.32;100.00
10202;BME280;5143;42.584;23.164;2023-04-15T03:46:03;91856.44;;;5.21;100.00
10202;BME280;5143;42.584;23.164;2023-04-15T03:48:30;91852.88;;;5.15;100.00
10202;BME280;5143;42.584;23.164;2023-04-15T03:50:57;91853.97;;;5.09;100.00
10202;BME280;5143;42.584;23.164;2023-04-15T03:53:24;91852.09;;;5.00;100.00
10202;BME280;5143;42.584;23.164;2023-04-15T03:55:51;91848.03;;;5.05;100.00
10202;BME280;5143;42.584;23.164;2023-04-15T03:58:17;91848.13;;;5.10;100.00
10202;BME280;5143;42.584;23.164;2023-04-15T04:00:46;91857.72;;;5.11;100.00
10202;BME280;5143;42.584;23.164;2023-04-15T04:03:13;91862.19;;;5.14;100.00
10202;BME280;5143;42.584;23.164;2023-04-15T04:05:40;91858.56;;;5.17;100.00
10202;BME280;5143;42.584;23.164;2023-04-15T04:08:08;91857.81;;;5.17;100.00
10202;BME280;5143;42.584;23.164;2023-04-15T04:10:38;91862.41;;;5.11;100.00
10202;BME280;5143;42.584;23.164;2023-04-15T04:13:05;91861.41;;;4.85;100.00
10202;BME280;5143;42.584;23.164;2023-04-15T04:15:32;91867.19;;;4.78;100.00
10202;BME280;5143;42.584;23.164;2023-04-15T04:18:00;91869.31;;;4.73;100.00
10202;BME280;5143;42.584;23.164;2023-04-15T04:20:27;91868.75;;;4.69;100.00
10202;BME280;5143;42.584;23.164;2023-04-15T04:22:56;91859.50;;;4.61;100.00
10202;BME280;5143;42.584;23.164;2023-04-15T04:25:23;91874.66;;;4.59;100.00
10202;BME280;5143;42.584;23.164;2023-04-15T04:27:50;91879.84;;;4.48;100.00
10202;BME280;5143;42.584;23.164;2023-04-15T04:30:17;91880.03;;;4.44;100.00
10202;BME280;5143;42.584;23.164;2023-04-15T04:32:44;91867.19;;;4.30;100.00
10202;BME280;5143;42.584;23.164;2023-04-15T04:35:12;91892.06;;;4.34;100.00
10202;BME280;5143;42.584;23.164;2023-04-15T04:37:39;91895.25;;;4.33;100.00
10202;BME280;5143;42.584;23.164;2023-04-15T04:40:08;91866.97;;;4.19;100.00
10202;BME280;5143;42.584;23.164;2023-04-15T04:42:35;91891.78;;;4.32;100.00
10202;BME280;5143;42.584;23.164;2023-04-15T04:45:02;91888.81;;;4.30;100.00
10202;BME280;5143;42.584;23.164;2023-04-15T04:47:29;91891.22;;;4.28;100.00
10202;BME280;5143;42.584;23.164;2023-04-15T04:49:56;91898.63;;;4.42;100.00
10202;BME280;5143;42.584;23.164;2023-04-15T04:52:24;91901.63;;;4.44;100.00
10202;BME280;5143;42.584;23.164;2023-04-15T04:54:51;91901.16;;;4.46;100.00
10202;BME280;5143;42.584;23.164;2023-04-15T04:57:18;91891.34;;;4.34;100.00
10202;BME280;5143;42.584;23.164;2023-04-15T04:59:45;91909.00;;;4.44;100.00
10202;BME280;5143;42.584;23.164;2023-04-15T05:02:12;91915.31;;;5.03;100.00
10202;BME280;5143;42.584;23.164;2023-04-15T05:04:39;91920.78;;;6.89;100.00
10202;BME280;5143;42.584;23.164;2023-04-15T05:07:06;91949.97;;;9.22;100.00
10202;BME280;5143;42.584;23.164;2023-04-15T05:09:35;91965.63;;;10.75;100.00
10202;BME280;5143;42.584;23.164;2023-04-15T05:12:02;91962.88;;;11.66;100.00
10202;BME280;5143;42.584;23.164;2023-04-15T05:14:29;91975.53;;;12.62;96.35
10202;BME280;5143;42.584;23.164;2023-04-15T05:16:57;91981.66;;;13.03;84.60
10202;BME280;5143;42.584;23.164;2023-04-15T05:19:23;91995.13;;;14.16;71.60
10202;BME280;5143;42.584;23.164;2023-04-15T05:21:50;91989.44;;;15.28;63.88
10202;BME280;5143;42.584;23.164;2023-04-15T05:24:17;91984.41;;;15.85;57.83
10202;BME280;5143;42.584;23.164;2023-04-15T05:26:45;91982.06;;;16.62;53.00
10202;BME280;5143;42.584;23.164;2023-04-15T05:29:12;91971.13;;;17.52;51.20
10202;BME280;5143;42.584;23.164;2023-04-15T05:31:38;91969.66;;;17.31;50.21
10202;BME280;5143;42.584;23.164;2023-04-15T05:34:05;91967.72;;;16.77;49.90
10202;BME280;5143;42.584;23.164;2023-04-15T05:36:33;91972.44;;;16.09;52.03
10202;BME280;5143;42.584;23.164;2023-04-15T05:39:01;91969.91;;;16.11;51.82
10202;BME280;5143;42.584;23.164;2023-04-15T05:41:28;91974.34;;;16.14;51.90
10202;BME280;5143;42.584;23.164;2023-04-15T05:43:57;91991.00;;;17.30;50.45
10202;BME280;5143;42.584;23.164;2023-04-15T05:46:24;91992.81;;;17.28;49.34
10202;BME280;5143;42.584;23.164;2023-04-15T05:48:50;91989.59;;;17.57;48.16
10202;BME280;5143;42.584;23.164;2023-04-15T05:51:17;91995.25;;;19.03;45.86
10202;BME280;5143;42.584;23.164;2023-04-15T05:53:44;92009.84;;;18.60;45.66
10202;BME280;5143;42.584;23.164;2023-04-15T05:56:12;92007.06;;;17.88;45.32
10202;BME280;5143;42.584;23.164;2023-04-15T05:58:39;91995.69;;;17.01;46.74
10202;BME280;5143;42.584;23.164;2023-04-15T06:01:08;91997.50;;;15.26;48.59
10202;BME280;5143;42.584;23.164;2023-04-15T06:03:35;91998.41;;;15.61;49.06
10202;BME280;5143;42.584;23.164;2023-04-15T06:06:02;91984.69;;;15.29;48.60
10202;BME280;5143;42.584;23.164;2023-04-15T06:08:29;92005.81;;;16.65;48.12
10202;BME280;5143;42.584;23.164;2023-04-15T06:10:57;92005.28;;;16.67;46.23
10202;BME280;5143;42.584;23.164;2023-04-15T06:13:24;92012.28;;;17.22;45.52
10202;BME280;5143;42.584;23.164;2023-04-15T06:15:51;92001.25;;;16.08;45.97
10202;BME280;5143;42.584;23.164;2023-04-15T06:18:20;92005.56;;;16.76;45.40
10202;BME280;5143;42.584;23.164;2023-04-15T06:20:47;92022.88;;;16.97;45.79
10202;BME280;5143;42.584;23.164;2023-04-15T06:23:14;92017.38;;;16.97;45.64
10202;BME280;5143;42.584;23.164;2023-04-15T06:25:41;92025.91;;;17.48;44.10
10202;BME280;5143;42.584;23.164;2023-04-15T06:28:08;92030.94;;;17.78;43.93
10202;BME280;5143;42.584;23.164;2023-04-15T06:30:35;92043.34;;;18.92;41.74
10202;BME280;5143;42.584;23.164;2023-04-15T06:33:02;92048.41;;;16.98;44.41
10202;BME280;5143;42.584;23.164;2023-04-15T06:35:31;92041.69;;;15.86;45.68
10202;BME280;5143;42.584;23.164;2023-04-15T06:37:58;92053.75;;;16.10;46.60
10202;BME280;5143;42.584;23.164;2023-04-15T06:40:25;92053.22;;;15.59;47.39
10202;BME280;5143;42.584;23.164;2023-04-15T06:42:52;92064.16;;;16.17;46.74
10202;BME280;5143;42.584;23.164;2023-04-15T06:45:19;92060.72;;;15.58;46.37
10202;BME280;5143;42.584;23.164;2023-04-15T06:47:46;92056.72;;;15.85;46.60
10202;BME280;5143;42.584;23.164;2023-04-15T06:50:13;92039.78;;;16.21;46.49
10202;BME280;5143;42.584;23.164;2023-04-15T06:52:42;92049.41;;;16.87;44.31
10202;BME280;5143;42.584;23.164;2023-04-15T06:55:09;92048.38;;;17.32;44.29
10202;BME280;5143;42.584;23.164;2023-04-15T06:57:36;92054.38;;;16.55;44.11
10202;BME280;5143;42.584;23.164;2023-04-15T07:00:03;92060.28;;;16.59;44.45
10202;BME280;5143;42.584;23.164;2023-04-15T07:02:31;92057.09;;;17.36;43.50
10202;BME280;5143;42.584;23.164;2023-04-15T07:04:58;92059.28;;;17.37;42.69
10202;BME280;5143;42.584;23.164;2023-04-15T07:07:26;92055.13;;;16.89;44.39
10202;BME280;5143;42.584;23.164;2023-04-15T07:09:54;92058.69;;;17.52;43.00
10202;BME280;5143;42.584;23.164;2023-04-15T07:12:22;92061.63;;;18.23;42.76
10202;BME280;5143;42.584;23.164;2023-04-15T07:14:49;92059.47;;;18.01;44.06
10202;BME280;5143;42.584;23.164;2023-04-15T07:17:16;92055.94;;;18.29;43.05
10202;BME280;5143;42.584;23.164;2023-04-15T07:19:43;92054.31;;;18.05;43.00
10202;BME280;5143;42.584;23.164;2023-04-15T07:22:10;92041.16;;;17.91;43.02
10202;BME280;5143;42.584;23.164;2023-04-15T07:24:37;92067.56;;;17.79;46.38
10202;BME280;5143;42.584;23.164;2023-04-15T07:27:05;92077.59;;;17.48;44.01
10202;BME280;5143;42.584;23.164;2023-04-15T07:29:32;92075.50;;;17.20;45.00
10202;BME280;5143;42.584;23.164;2023-04-15T07:31:59;92058.63;;;15.77;46.64
10202;BME280;5143;42.584;23.164;2023-04-15T07:34:27;92062.94;;;15.60;47.93
10202;BME280;5143;42.584;23.164;2023-04-15T07:36:54;92051.59;;;15.50;49.84
10202;BME280;5143;42.584;23.164;2023-04-15T07:39:21;92059.16;;;16.02;49.02
10202;BME280;5143;42.584;23.164;2023-04-15T07:41:49;92070.91;;;16.29;45.87
10202;BME280;5143;42.584;23.164;2023-04-15T07:44:17;92067.31;;;16.08;46.99
10202;BME280;5143;42.584;23.164;2023-04-15T07:46:44;92074.41;;;16.16;48.06
10202;BME280;5143;42.584;23.164;2023-04-15T07:49:11;92076.75;;;15.99;48.35
10202;BME280;5143;42.584;23.164;2023-04-15T07:51:39;92067.31;;;16.08;47.76
10202;BME280;5143;42.584;23.164;2023-04-15T07:54:05;92083.94;;;15.76;47.67
10202;BME280;5143;42.584;23.164;2023-04-15T07:56:33;92094.78;;;15.55;48.35
10202;BME280;5143;42.584;23.164;2023-04-15T07:59:00;92087.88;;;16.33;48.01
10202;BME280;5143;42.584;23.164;2023-04-15T08:01:30;92085.50;;;15.71;48.53
10202;BME280;5143;42.584;23.164;2023-04-15T08:03:57;92081.19;;;16.15;47.01
10202;BME280;5143;42.584;23.164;2023-04-15T08:06:24;92099.31;;;16.63;47.42
10202;BME280;5143;42.584;23.164;2023-04-15T08:08:51;92104.19;;;16.18;47.71
10202;BME280;5143;42.584;23.164;2023-04-15T08:11:19;92099.13;;;15.32;48.77
10202;BME280;5143;42.584;23.164;2023-04-15T08:13:46;92097.81;;;15.20;48.79
10202;BME280;5143;42.584;23.164;2023-04-15T08:16:16;92082.59;;;13.83;50.14
10202;BME280;5143;42.584;23.164;2023-04-15T08:18:45;92084.53;;;13.88;50.13
10202;BME280;5143;42.584;23.164;2023-04-15T08:21:13;92096.94;;;13.70;49.79
10202;BME280;5143;42.584;23.164;2023-04-15T08:23:41;92090.44;;;14.16;49.45
10202;BME280;5143;42.584;23.164;2023-04-15T08:26:09;92095.41;;;14.79;47.01
10202;BME280;5143;42.584;23.164;2023-04-15T08:28:37;92091.81;;;15.53;46.08
10202;BME280;5143;42.584;23.164;2023-04-15T08:31:05;92091.09;;;15.34;45.07
10202;BME280;5143;42.584;23.164;2023-04-15T08:33:32;92080.06;;;15.21;46.38
10202;BME280;5143;42.584;23.164;2023-04-15T08:36:00;92085.91;;;14.99;45.43
10202;BME280;5143;42.584;23.164;2023-04-15T08:38:27;92079.00;;;14.73;46.12
10202;BME280;5143;42.584;23.164;2023-04-15T08:40:55;92070.66;;;14.98;47.12
10202;BME280;5143;42.584;23.164;2023-04-15T08:43:27;92086.44;;;14.78;46.42
10202;BME280;5143;42.584;23.164;2023-04-15T08:46:00;92080.03;;;15.08;46.08
10202;BME280;5143;42.584;23.164;2023-04-15T08:48:28;92079.84;;;15.19;45.96
10202;BME280;5143;42.584;23.164;2023-04-15T08:50:56;92066.41;;;15.15;45.65
10202;BME280;5143;42.584;23.164;2023-04-15T08:53:25;92078.06;;;15.03;46.13
10202;BME280;5143;42.584;23.164;2023-04-15T08:55:54;92068.22;;;14.75;46.85
10202;BME280;5143;42.584;23.164;2023-04-15T08:58:23;92060.00;;;14.38;46.85
10202;BME280;5143;42.584;23.164;2023-04-15T09:00:50;92065.72;;;14.77;44.85
10202;BME280;5143;42.584;23.164;2023-04-15T09:03:17;92056.38;;;15.18;44.87
10202;BME280;5143;42.584;23.164;2023-04-15T09:05:46;92055.22;;;15.58;45.27
10202;BME280;5143;42.584;23.164;2023-04-15T09:08:13;92054.22;;;15.87;44.40
10202;BME280;5143;42.584;23.164;2023-04-15T09:10:43;92068.25;;;15.71;42.34
10202;BME280;5143;42.584;23.164;2023-04-15T09:13:10;92064.75;;;15.70;41.02
10202;BME280;5143;42.584;23.164;2023-04-15T09:15:38;92078.84;;;15.35;40.32
10202;BME280;5143;42.584;23.164;2023-04-15T09:18:04;92074.63;;;14.84;43.04
10202;BME280;5143;42.584;23.164;2023-04-15T09:20:39;92064.72;;;14.19;42.00
10202;BME280;5143;42.584;23.164;2023-04-15T09:23:14;92069.88;;;14.65;43.09
10202;BME280;5143;42.584;23.164;2023-04-15T09:25:44;92065.88;;;15.17;41.49
10202;BME280;5143;42.584;23.164;2023-04-15T09:28:10;92074.66;;;15.15;41.24
10202;BME280;5143;42.584;23.164;2023-04-15T09:30:37;92079.66;;;15.30;40.81
10202;BME280;5143;42.584;23.164;2023-04-15T09:33:05;92077.91;;;15.14;38.76
10202;BME280;5143;42.584;23.164;2023-04-15T09:35:33;92073.94;;;14.96;40.01
10202;BME280;5143;42.584;23.164;2023-04-15T09:38:04;92077.59;;;14.86;39.70
10202;BME280;5143;42.584;23.164;2023-04-15T09:40:33;92085.13;;;15.17;41.07
10202;BME280;5143;42.584;23.164;2023-04-15T09:43:02;92088.00;;;15.24;42.27
10202;BME280;5143;42.584;23.164;2023-04-15T09:45:30;92063.38;;;15.77;41.52
10202;BME280;5143;42.584;23.164;2023-04-15T09:47:58;92085.03;;;16.12;41.13
10202;BME280;5143;42.584;23.164;2023-04-15T09:50:27;92086.19;;;16.17;41.02
10202;BME280;5143;42.584;23.164;2023-04-15T09:52:54;92090.41;;;16.05;40.06
10202;BME280;5143;42.584;23.164;2023-04-15T09:55:22;92075.97;;;15.59;40.22
10202;BME280;5143;42.584;23.164;2023-04-15T09:57:49;92088.00;;;15.56;39.63
10202;BME280;5143;42.584;23.164;2023-04-15T10:00:17;92081.25;;;15.38;40.67
10202;BME280;5143;42.584;23.164;2023-04-15T10:02:44;92089.31;;;15.68;41.40
10202;BME280;5143;42.584;23.164;2023-04-15T10:05:14;92070.72;;;16.01;40.11
10202;BME280;5143;42.584;23.164;2023-04-15T10:07:42;92075.47;;;16.26;39.81
10202;BME280;5143;42.584;23.164;2023-04-15T10:10:11;92066.03;;;16.35;41.63
10202;BME280;5143;42.584;23.164;2023-04-15T10:12:39;92052.69;;;16.39;41.67
10202;BME280;5143;42.584;23.164;2023-04-15T10:15:10;92065.09;;;16.19;41.19
10202;BME280;5143;42.584;23.164;2023-04-15T10:17:42;92064.16;;;16.17;41.46
10202;BME280;5143;42.584;23.164;2023-04-15T10:20:10;92065.09;;;16.32;40.09
10202;BME280;5143;42.584;23.164;2023-04-15T10:22:39;92058.41;;;16.54;40.27
10202;BME280;5143;42.584;23.164;2023-04-15T10:25:08;92045.69;;;16.64;39.92
10202;BME280;5143;42.584;23.164;2023-04-15T10:27:37;92052.88;;;16.67;39.62
10202;BME280;5143;42.584;23.164;2023-04-15T10:30:06;92056.66;;;16.77;40.33
10202;BME280;5143;42.584;23.164;2023-04-15T10:32:34;92059.00;;;16.73;39.67
10202;BME280;5143;42.584;23.164;2023-04-15T10:35:04;92058.59;;;16.69;42.07
10202;BME280;5143;42.584;23.164;2023-04-15T10:37:34;92051.63;;;16.29;40.81
10202;BME280;5143;42.584;23.164;2023-04-15T10:40:23;92047.81;;;16.45;41.87
10202;BME280;5143;42.584;23.164;2023-04-15T10:42:52;92046.34;;;16.91;40.23
10202;BME280;5143;42.584;23.164;2023-04-15T10:45:19;92062.38;;;17.13;40.77
10202;BME280;5143;42.584;23.164;2023-04-15T10:47:50;92051.97;;;16.85;41.06
10202;BME280;5143;42.584;23.164;2023-04-15T10:50:19;92047.97;;;16.73;40.19
10202;BME280;5143;42.584;23.164;2023-04-15T10:52:49;92043.19;;;17.07;40.71
10202;BME280;5143;42.584;23.164;2023-04-15T10:55:19;92046.72;;;16.95;39.72
10202;BME280;5143;42.584;23.164;2023-04-15T10:57:51;92043.41;;;17.09;38.82
10202;BME280;5143;42.584;23.164;2023-04-15T11:00:19;92047.53;;;16.82;41.19
10202;BME280;5143;42.584;23.164;2023-04-15T11:02:50;92054.88;;;17.00;40.84
10202;BME280;5143;42.584;23.164;2023-04-15T11:05:20;92042.09;;;16.90;38.52
10202;BME280;5143;42.584;23.164;2023-04-15T11:07:53;92039.75;;;16.94;38.64
10202;BME280;5143;42.584;23.164;2023-04-15T11:10:50;92044.84;;;16.90;38.11
10202;BME280;5143;42.584;23.164;2023-04-15T11:13:25;92039.44;;;16.64;38.17
10202;BME280;5143;42.584;23.164;2023-04-15T11:16:01;92034.88;;;16.40;39.49
10202;BME280;5143;42.584;23.164;2023-04-15T11:18:32;92034.88;;;16.40;40.49
10202;BME280;5143;42.584;23.164;2023-04-15T11:21:03;92030.84;;;16.54;38.80
10202;BME280;5143;42.584;23.164;2023-04-15T11:23:33;92033.81;;;16.90;38.04
10202;BME280;5143;42.584;23.164;2023-04-15T11:26:01;92035.06;;;17.02;38.25
10202;BME280;5143;42.584;23.164;2023-04-15T11:28:31;92035.94;;;17.18;37.47
10202;BME280;5143;42.584;23.164;2023-04-15T11:31:06;92024.63;;;17.29;38.74
10202;BME280;5143;42.584;23.164;2023-04-15T11:33:33;92040.72;;;17.38;38.72
10202;BME280;5143;42.584;23.164;2023-04-15T11:36:01;92030.91;;;17.71;40.22
10202;BME280;5143;42.584;23.164;2023-04-15T11:38:29;92026.19;;;17.58;38.16
10202;BME280;5143;42.584;23.164;2023-04-15T11:40:56;92026.66;;;17.49;36.66
10202;BME280;5143;42.584;23.164;2023-04-15T11:43:23;92034.59;;;17.52;37.77
10202;BME280;5143;42.584;23.164;2023-04-15T11:45:52;92034.94;;;17.98;36.55
10202;BME280;5143;42.584;23.164;2023-04-15T11:48:22;92034.59;;;17.52;36.38
10202;BME280;5143;42.584;23.164;2023-04-15T11:50:53;92026.91;;;17.79;36.94
10202;BME280;5143;42.584;23.164;2023-04-15T11:53:22;92032.13;;;17.62;35.58
10202;BME280;5143;42.584;23.164;2023-04-15T11:55:51;92024.97;;;17.66;36.50
10202;BME280;5143;42.584;23.164;2023-04-15T11:58:20;92023.59;;;17.81;36.15
10202;BME280;5143;42.584;23.164;2023-04-15T12:00:49;92022.22;;;17.46;36.19
10202;BME280;5143;42.584;23.164;2023-04-15T12:03:19;92026.88;;;17.72;36.97
10202;BME280;5143;42.584;23.164;2023-04-15T12:06:15;92016.63;;;17.38;36.29
10202;BME280;5143;42.584;23.164;2023-04-15T12:08:59;92020.00;;;17.93;35.72
10202;BME280;5143;42.584;23.164;2023-04-15T12:11:28;92026.03;;;17.84;35.56
10202;BME280;5143;42.584;23.164;2023-04-15T12:13:57;92019.09;;;17.70;34.13
10202;BME280;5143;42.584;23.164;2023-04-15T12:16:24;92022.84;;;17.80;33.90
10202;BME280;5143;42.584;23.164;2023-04-15T12:18:52;92022.53;;;17.01;33.99
10202;BME280;5143;42.584;23.164;2023-04-15T12:21:20;92022.88;;;17.39;33.99
10202;BME280;5143;42.584;23.164;2023-04-15T12:23:48;92030.50;;;17.46;34.46
10202;BME280;5143;42.584;23.164;2023-04-15T12:26:17;92032.38;;;17.30;36.68
10202;BME280;5143;42.584;23.164;2023-04-15T12:28:52;92028.53;;;16.92;35.28
10202;BME280;5143;42.584;23.164;2023-04-15T12:31:20;92026.53;;;16.79;34.36
10202;BME280;5143;42.584;23.164;2023-04-15T12:33:48;92033.84;;;17.10;35.58
10202;BME280;5143;42.584;23.164;2023-04-15T12:36:15;92027.22;;;16.93;36.86
10202;BME280;5143;42.584;23.164;2023-04-15T12:38:42;92028.38;;;17.39;37.13
10202;BME280;5143;42.584;23.164;2023-04-15T12:41:09;92031.22;;;17.67;36.19
10202;BME280;5143;42.584;23.164;2023-04-15T12:43:37;92020.66;;;17.58;36.63
10202;BME280;5143;42.584;23.164;2023-04-15T12:46:04;92033.19;;;17.80;35.90
10202;BME280;5143;42.584;23.164;2023-04-15T12:48:31;92031.84;;;17.52;35.50
10202;BME280;5143;42.584;23.164;2023-04-15T12:50:58;92035.34;;;17.74;34.71
10202;BME280;5143;42.584;23.164;2023-04-15T12:53:26;92035.94;;;17.59;35.05
10202;BME280;5143;42.584;23.164;2023-04-15T12:55:53;92023.84;;;17.62;35.24
10202;BME280;5143;42.584;23.164;2023-04-15T12:58:20;92030.34;;;17.72;36.34
10202;BME280;5143;42.584;23.164;2023-04-15T13:00:48;92028.72;;;17.77;35.43
10202;BME280;5143;42.584;23.164;2023-04-15T13:03:15;92037.69;;;17.49;34.75
10202;BME280;5143;42.584;23.164;2023-04-15T13:05:42;92037.69;;;17.49;35.10